Time;durP1;ratioP1;P1;durP2;ratioP2;P2;SDS_P1;SDS_P2;PMS_P1;PMS_P2;Temp;Humidity;BMP_temperature;BMP_pressure;BME280_temperature;BME280_humidity;BME280_pressure;Samples;Min_cycle;Max_cycle;Signal;HPM_P1;HPM_P2
2023/12/05 00:03:35;;;;;;;45.75;26.58;;;;;;;1.06;100.00;99433.09;10479959;28;20044;-86
2023/12/05 00:08:36;;;;;;;39.28;25.02;;;;;;;1.08;100.00;99428.06;10490825;28;20031;-87
2023/12/05 00:13:36;;;;;;;39.80;28.17;;;;;;;1.11;100.00;99425.66;10469254;28;20480;-87
2023/12/05 00:18:37;;;;;;;40.80;25.75;;;;;;;1.14;100.00;99418.13;10463892;28;20123;-87
2023/12/05 00:23:37;;;;;;;40.70;27.20;;;;;;;1.11;100.00;99398.19;10455016;28;20121;-87
2023/12/05 00:28:38;;;;;;;40.47;24.30;;;;;;;1.12;100.00;99411.97;10467353;28;20044;-87
2023/12/05 00:33:38;;;;;;;43.65;24.73;;;;;;;1.15;100.00;99405.31;10449678;28;20115;-87
2023/12/05 00:38:39;;;;;;;42.15;26.30;;;;;;;1.22;100.00;99414.34;10483797;28;20124;-88
2023/12/05 00:43:39;;;;;;;37.83;25.85;;;;;;;1.30;100.00;99407.06;10483449;28;20036;-86
2023/12/05 00:48:40;;;;;;;39.88;25.17;;;;;;;1.33;100.00;99409.81;10468323;28;20037;-86
2023/12/05 00:53:40;;;;;;;41.03;26.48;;;;;;;1.36;100.00;99401.41;10466242;28;20132;-86
2023/12/05 00:58:41;;;;;;;36.55;24.15;;;;;;;1.38;100.00;99402.38;10453845;28;20552;-82
2023/12/05 01:03:42;;;;;;;43.60;26.85;;;;;;;1.34;100.00;99403.88;10486282;28;20152;-88
2023/12/05 01:08:42;;;;;;;40.78;24.48;;;;;;;1.45;100.00;99396.78;10465934;28;20131;-88
2023/12/05 01:13:43;;;;;;;42.97;28.73;;;;;;;1.42;100.00;99401.78;10482554;28;20413;-88
2023/12/05 01:18:43;;;;;;;38.00;24.38;;;;;;;1.40;100.00;99401.66;10483441;28;20044;-87
2023/12/05 01:23:44;;;;;;;35.05;24.38;;;;;;;1.41;100.00;99394.84;10484435;28;20131;-87
2023/12/05 01:28:45;;;;;;;39.10;24.52;;;;;;;1.38;100.00;99390.38;10482158;28;20040;-88
2023/12/05 01:33:46;;;;;;;52.00;28.13;;;;;;;1.40;100.00;99387.91;10482986;28;20063;-89
2023/12/05 01:38:47;;;;;;;40.25;29.20;;;;;;;1.40;100.00;99386.19;10466350;28;20040;-88
2023/12/05 01:43:47;;;;;;;41.38;26.90;;;;;;;1.37;100.00;99386.00;10479138;28;20147;-88
2023/12/05 01:48:47;;;;;;;45.97;26.10;;;;;;;1.40;100.00;99383.63;10465974;28;20052;-87
2023/12/05 01:53:48;;;;;;;37.15;25.65;;;;;;;1.41;100.00;99381.94;10465287;28;20040;-87
2023/12/05 01:58:48;;;;;;;43.72;28.13;;;;;;;1.44;100.00;99387.28;10479477;28;20425;-86
2023/12/05 02:03:49;;;;;;;41.83;27.00;;;;;;;1.46;100.00;99376.25;10474744;28;20036;-85
2023/12/05 02:08:50;;;;;;;41.80;27.17;;;;;;;1.47;100.00;99379.72;10483731;28;20036;-87
2023/12/05 02:13:51;;;;;;;43.53;28.98;;;;;;;1.62;100.00;99374.59;10407283;28;20052;-88
2023/12/05 02:19:36;;;;;;;40.10;24.10;;;;;;;1.55;100.00;99370.75;10403199;28;20056;-87
2023/12/05 02:24:52;;;;;;;42.25;27.40;;;;;;;1.58;100.00;99381.25;10420435;28;20514;-88
2023/12/05 02:29:53;;;;;;;44.17;29.15;;;;;;;1.57;100.00;99374.31;10372786;28;20769;-88
2023/12/05 02:34:53;;;;;;;42.03;28.15;;;;;;;1.65;100.00;99374.75;10367378;28;20037;-89
2023/12/05 02:40:32;;;;;;;39.83;26.75;;;;;;;1.71;100.00;99379.41;10384305;28;20029;-87
2023/12/05 02:45:33;;;;;;;46.17;27.35;;;;;;;1.73;100.00;99378.69;10423116;28;20041;-88
2023/12/05 02:50:33;;;;;;;48.85;29.25;;;;;;;1.69;100.00;99381.88;10408698;28;20048;-88
2023/12/05 02:55:34;;;;;;;50.72;30.60;;;;;;;1.69;100.00;99371.56;10438003;28;20048;-89
2023/12/05 03:00:34;;;;;;;50.90;29.00;;;;;;;1.72;100.00;99373.44;10415222;28;20433;-87
2023/12/05 03:05:35;;;;;;;40.03;26.10;;;;;;;1.79;100.00;99369.53;10432315;28;20048;-88
2023/12/05 03:10:35;;;;;;;47.42;29.67;;;;;;;1.79;100.00;99369.53;10432358;28;20044;-86
2023/12/05 03:15:36;;;;;;;49.42;31.42;;;;;;;1.80;100.00;99363.56;10428090;28;20036;-87
2023/12/05 03:20:36;;;;;;;54.42;33.10;;;;;;;1.83;100.00;99368.91;10433491;28;20049;-86
2023/12/05 03:25:37;;;;;;;51.65;31.38;;;;;;;1.84;100.00;99361.28;10435140;28;20514;-86
2023/12/05 03:30:37;;;;;;;47.45;31.70;;;;;;;1.86;100.00;99359.66;10431237;28;20053;-87
2023/12/05 03:35:38;;;;;;;44.72;28.35;;;;;;;1.89;100.00;99356.34;10438660;28;20048;-87
2023/12/05 03:40:38;;;;;;;49.83;30.75;;;;;;;1.92;100.00;99353.09;10416127;28;20201;-87
2023/12/05 03:45:39;;;;;;;45.60;29.80;;;;;;;1.89;100.00;99353.78;10433756;28;20047;-87
2023/12/05 03:50:39;;;;;;;47.97;30.48;;;;;;;1.84;100.00;99356.09;10431017;28;20041;-87
2023/12/05 03:55:40;;;;;;;44.63;29.20;;;;;;;1.87;100.00;99350.22;10432741;28;20048;-88
2023/12/05 04:00:40;;;;;;;46.63;29.55;;;;;;;1.93;100.00;99354.88;10433540;28;20114;-88
2023/12/05 04:05:41;;;;;;;46.47;28.75;;;;;;;1.97;100.00;99367.16;10432508;28;20059;-88
2023/12/05 04:10:41;;;;;;;45.08;25.95;;;;;;;1.98;100.00;99364.63;10433771;28;20106;-87
2023/12/05 04:15:42;;;;;;;37.35;24.73;;;;;;;2.09;100.00;99372.09;10430044;28;20039;-86
2023/12/05 04:20:42;;;;;;;36.78;24.92;;;;;;;2.10;100.00;99371.31;10433293;28;20580;-86
2023/12/05 04:25:43;;;;;;;46.97;25.88;;;;;;;2.14;100.00;99371.59;10429645;28;20121;-86
2023/12/05 04:30:43;;;;;;;41.55;26.42;;;;;;;2.19;100.00;99379.56;10424559;28;20929;-87
2023/12/05 04:35:44;;;;;;;41.75;25.02;;;;;;;2.18;100.00;99385.53;10425636;28;20040;-87
2023/12/05 04:40:44;;;;;;;43.90;25.80;;;;;;;2.20;100.00;99382.25;10419194;28;20047;-88
2023/12/05 04:45:45;;;;;;;46.88;30.45;;;;;;;2.25;100.00;99376.47;10429023;28;20036;-86
2023/12/05 04:50:45;;;;;;;50.55;30.48;;;;;;;2.28;100.00;99382.69;10432495;28;20871;-87
2023/12/05 04:55:46;;;;;;;45.60;26.38;;;;;;;2.36;100.00;99383.13;10411765;28;20052;-87
2023/12/05 05:00:46;;;;;;;36.67;25.67;;;;;;;2.35;100.00;99384.81;10431468;28;20759;-86
2023/12/05 05:05:47;;;;;;;45.35;28.00;;;;;;;2.32;100.00;99383.75;10430295;28;20041;-86
2023/12/05 05:10:47;;;;;;;48.35;29.42;;;;;;;2.31;100.00;99384.56;10428572;28;20049;-86
2023/12/05 05:15:48;;;;;;;39.88;26.13;;;;;;;2.30;100.00;99398.28;10414048;28;20036;-87
2023/12/05 05:20:48;;;;;;;43.95;25.02;;;;;;;2.29;100.00;99388.75;10427119;28;20070;-87
2023/12/05 05:25:49;;;;;;;43.85;26.55;;;;;;;2.30;100.00;99409.47;10428392;28;20043;-87
2023/12/05 05:30:54;;;;;;;50.92;28.50;;;;;;;2.34;100.00;99395.94;10435025;28;20437;-84
2023/12/05 05:35:55;;;;;;;47.03;27.17;;;;;;;2.39;100.00;99409.13;10483651;28;20115;-90
2023/12/05 05:41:06;;;;;;;49.72;30.25;;;;;;;2.40;100.00;99404.84;10471256;28;20773;-84
2023/12/05 05:46:06;;;;;;;41.95;26.20;;;;;;;2.35;100.00;99408.03;10473740;28;20037;-90
2023/12/05 05:51:07;;;;;;;48.20;27.27;;;;;;;2.37;100.00;99423.66;10464231;28;20032;-88
2023/12/05 05:56:08;;;;;;;52.90;32.17;;;;;;;2.41;100.00;99411.78;10425876;28;20041;-91
2023/12/05 06:01:11;;;;;;;50.38;29.38;;;;;;;2.45;100.00;99418.91;10409132;28;20108;-84
2023/12/05 06:06:12;;;;;;;49.97;29.23;;;;;;;2.43;100.00;99420.50;10483733;28;20120;-84
2023/12/05 06:11:12;;;;;;;50.28;26.70;;;;;;;2.42;100.00;99429.97;10472408;28;20032;-84
2023/12/05 06:16:13;;;;;;;60.88;31.08;;;;;;;2.43;100.00;99436.00;10469816;28;20044;-81
2023/12/05 06:21:14;;;;;;;54.22;32.15;;;;;;;2.46;100.00;99442.25;10443755;28;20045;-84
2023/12/05 06:26:14;;;;;;;72.70;35.88;;;;;;;2.52;100.00;99443.41;10438533;28;20033;-84
2023/12/05 06:31:15;;;;;;;58.30;33.75;;;;;;;2.58;100.00;99444.63;10435015;28;20132;-84
2023/12/05 06:36:16;;;;;;;59.05;32.15;;;;;;;2.56;100.00;99443.66;10464710;28;20140;-85
2023/12/05 06:41:17;;;;;;;54.90;34.15;;;;;;;2.55;100.00;99451.31;10485785;28;20049;-85
2023/12/05 06:46:18;;;;;;;53.13;33.00;;;;;;;2.58;100.00;99454.94;10489265;28;20072;-85
2023/12/05 06:51:18;;;;;;;49.95;31.55;;;;;;;2.59;100.00;99464.47;10488690;28;20128;-84
2023/12/05 06:56:22;;;;;;;57.45;35.42;;;;;;;2.61;100.00;99456.84;10487121;28;20127;-87
2023/12/05 07:01:22;;;;;;;53.97;33.10;;;;;;;2.67;100.00;99474.34;10486465;28;20055;-84
2023/12/05 07:06:23;;;;;;;46.85;30.73;;;;;;;2.71;100.00;99474.63;10488186;28;20465;-84
2023/12/05 07:11:27;;;;;;;50.15;32.55;;;;;;;2.79;100.00;99480.22;10489016;28;20115;-86
2023/12/05 07:16:27;;;;;;;54.88;30.85;;;;;;;2.79;100.00;99495.72;10445643;28;20063;-86
2023/12/05 07:21:28;;;;;;;57.60;30.20;;;;;;;2.75;100.00;99502.44;10425768;28;20043;-86
2023/12/05 07:26:29;;;;;;;52.75;32.25;;;;;;;2.77;100.00;99507.66;10467805;28;20506;-86
2023/12/05 07:31:29;;;;;;;68.75;41.13;;;;;;;2.89;100.00;99515.25;10430079;28;20471;-86
2023/12/05 07:36:30;;;;;;;73.25;41.00;;;;;;;2.97;100.00;99518.25;10465574;28;20131;-86
2023/12/05 07:41:30;;;;;;;71.50;41.90;;;;;;;2.93;100.00;99524.94;10490434;28;20102;-93
2023/12/05 07:46:31;;;;;;;77.07;46.50;;;;;;;2.94;100.00;99535.38;10488221;28;20862;-93
2023/12/05 07:51:31;;;;;;;71.38;39.90;;;;;;;2.94;100.00;99535.38;10441786;28;20116;-87
2023/12/05 07:56:32;;;;;;;72.00;43.63;;;;;;;2.96;100.00;99545.81;10466251;28;20052;-87
2023/12/05 08:01:32;;;;;;;65.25;38.75;;;;;;;3.06;100.00;99553.28;10428589;28;20029;-90
2023/12/05 08:06:33;;;;;;;66.25;43.00;;;;;;;3.10;100.00;99559.50;10444178;28;20082;-88
2023/12/05 08:11:35;;;;;;;69.13;42.80;;;;;;;3.14;100.00;99568.34;10443538;28;20115;-90
2023/12/05 08:16:37;;;;;;;73.43;40.65;;;;;;;3.14;100.00;99564.03;10447283;28;20076;-88
2023/12/05 08:21:37;;;;;;;70.90;43.00;;;;;;;3.16;100.00;99571.91;10485934;28;20059;-88
2023/12/05 08:26:43;;;;;;;63.03;37.33;;;;;;;3.16;100.00;99566.72;10486890;28;20080;-94
2023/12/05 08:31:44;;;;;;;58.63;35.65;;;;;;;3.22;100.00;99578.28;10495491;28;20040;-95
2023/12/05 08:36:45;;;;;;;53.92;36.17;;;;;;;3.21;100.00;99584.25;10494785;28;20032;-93
2023/12/05 08:41:45;;;;;;;58.55;37.17;;;;;;;3.20;100.00;99587.66;10474376;28;20052;-92
2023/12/05 08:46:46;;;;;;;60.33;42.13;;;;;;;3.13;100.00;99590.69;10482343;28;20131;-92
2023/12/05 08:51:47;;;;;;;64.32;39.40;;;;;;;3.18;100.00;99589.25;10449329;28;20081;-89
2023/12/05 08:56:47;;;;;;;60.90;39.47;;;;;;;3.14;100.00;99583.84;10449521;28;20116;-86
2023/12/05 09:01:48;;;;;;;57.15;38.97;;;;;;;3.25;100.00;99592.19;10470576;28;20503;-90
2023/12/05 09:06:48;;;;;;;61.22;38.92;;;;;;;3.30;100.00;99607.19;10433880;28;20449;-85
2023/12/05 09:11:49;;;;;;;68.47;40.53;;;;;;;3.42;100.00;99612.13;10425506;28;20119;-92
2023/12/05 09:16:49;;;;;;;54.78;35.83;;;;;;;3.44;100.00;99622.59;10466844;28;20131;-87
2023/12/05 09:21:52;;;;;;;58.55;37.97;;;;;;;3.46;100.00;99632.19;10475518;28;20112;-91
2023/12/05 09:26:52;;;;;;;69.05;44.00;;;;;;;3.43;100.00;99632.03;10520074;28;20036;-87
2023/12/05 09:31:53;;;;;;;65.65;42.25;;;;;;;3.29;100.00;99641.59;10504357;28;20121;-91
2023/12/05 09:36:53;;;;;;;61.80;39.63;;;;;;;3.22;100.00;99642.06;10511440;28;20055;-91
2023/12/05 09:41:54;;;;;;;49.75;34.45;;;;;;;3.38;100.00;99648.97;10461015;28;20120;-90
2023/12/05 09:46:57;;;;;;;55.13;35.33;;;;;;;3.27;100.00;99661.31;10400885;28;20116;-89
2023/12/05 09:51:59;;;;;;;55.58;37.10;;;;;;;3.25;100.00;99667.19;10440803;28;20037;-92
2023/12/05 09:57:00;;;;;;;39.25;28.92;;;;;;;3.21;100.00;99672.19;10436856;28;20096;-92
2023/12/05 10:02:02;;;;;;;47.55;33.17;;;;;;;3.26;100.00;99671.56;10439259;28;20068;-88
2023/12/05 10:07:02;;;;;;;;;;;;;;;3.25;100.00;99667.19;10476556;28;20040;-86
2023/12/05 10:12:04;;;;;;;45.80;28.48;;;;;;;3.26;100.00;99674.13;10479380;28;19920;-88
2023/12/05 10:17:04;;;;;;;35.00;23.27;;;;;;;3.33;100.00;99671.09;10462013;28;20044;-88
2023/12/05 10:22:06;;;;;;;46.38;28.13;;;;;;;3.41;100.00;99675.03;10457060;28;20067;-94
2023/12/05 10:27:06;;;;;;;46.85;28.95;;;;;;;3.43;100.00;99681.16;10487492;28;20491;-86
2023/12/05 10:32:08;;;;;;;43.97;29.23;;;;;;;3.42;100.00;99678.50;10483566;28;20060;-90
2023/12/05 10:37:08;;;;;;;45.93;31.30;;;;;;;3.42;100.00;99694.03;10480185;28;20040;-91
2023/12/05 10:42:09;;;;;;;44.20;30.10;;;;;;;3.47;100.00;99688.31;10487790;28;20463;-92
2023/12/05 10:47:11;;;;;;;45.20;29.90;;;;;;;3.63;100.00;99691.75;10509720;28;20063;-88
2023/12/05 10:52:12;;;;;;;47.28;28.77;;;;;;;3.63;100.00;99696.94;10479275;28;20041;-88
2023/12/05 10:57:12;;;;;;;37.27;26.17;;;;;;;3.57;100.00;99701.75;10473736;28;20040;-88
2023/12/05 11:02:14;;;;;;;44.97;28.73;;;;;;;3.47;100.00;99703.81;10466141;28;20095;-86
2023/12/05 11:07:14;;;;;;;38.07;23.93;;;;;;;3.42;100.00;99704.38;10502780;28;20036;-84
2023/12/05 11:12:15;;;;;;;51.58;32.03;;;;;;;3.41;100.00;99713.81;10508117;28;20648;-88
2023/12/05 11:17:34;;;;;;;62.75;37.75;;;;;;;3.29;100.00;99711.44;10479285;28;20062;-89
2023/12/05 11:23:05;;;;;;;50.25;31.38;;;;;;;3.24;100.00;99725.78;10475672;28;20132;-87
2023/12/05 11:28:21;;;;;;;60.85;36.10;;;;;;;3.19;100.00;99730.69;10488517;28;20534;-84
2023/12/05 11:33:27;;;;;;;56.53;34.70;;;;;;;3.18;100.00;99736.66;10486477;28;20105;-89
2023/12/05 11:38:28;;;;;;;60.38;38.05;;;;;;;3.08;100.00;99740.41;10501838;28;20466;-91
2023/12/05 11:43:28;;;;;;;52.40;32.10;;;;;;;3.05;100.00;99742.81;10492647;28;20048;-90
2023/12/05 11:48:30;;;;;;;61.03;34.25;;;;;;;3.04;100.00;99748.78;10495764;28;20119;-90
2023/12/05 11:53:30;;;;;;;63.50;35.13;;;;;;;2.98;100.00;99750.06;10491497;28;20044;-89
2023/12/05 11:58:34;;;;;;;64.90;37.85;;;;;;;2.84;100.00;99759.59;10485512;28;20458;-90
2023/12/05 12:03:47;;;;;;;65.68;38.97;;;;;;;2.76;100.00;99756.53;10472102;28;20468;-88
2023/12/05 12:08:50;;;;;;;60.33;35.35;;;;;;;2.78;100.00;99770.44;10441006;28;20048;-89
2023/12/05 12:13:50;;;;;;;66.18;39.58;;;;;;;2.82;100.00;99780.16;10493745;28;20048;-88
2023/12/05 12:18:51;;;;;;;76.20;40.15;;;;;;;2.77;100.00;99789.34;10480663;28;20399;-82
2023/12/05 12:23:58;;;;;;;81.82;46.25;;;;;;;2.73;100.00;99790.84;10485591;28;20190;-86
2023/12/05 12:29:11;;;;;;;81.20;43.78;;;;;;;2.58;100.00;99802.81;10439580;28;20040;-87
2023/12/05 12:34:26;;;;;;;78.68;45.10;;;;;;;2.44;100.00;99799.34;10443007;28;20041;-87
2023/12/05 12:39:27;;;;;;;81.90;45.30;;;;;;;2.44;100.00;99810.59;10467683;28;20504;-88
2023/12/05 12:44:28;;;;;;;79.93;44.28;;;;;;;2.45;100.00;99817.53;10494910;28;20067;-87
2023/12/05 12:49:29;;;;;;;88.40;51.03;;;;;;;2.46;100.00;99821.91;10467520;28;20047;-88
2023/12/05 12:54:29;;;;;;;84.20;47.20;;;;;;;2.44;100.00;99835.50;10498850;28;20119;-88
2023/12/05 12:59:29;;;;;;;78.82;42.92;;;;;;;2.30;100.00;99839.81;10486977;28;20056;-89
2023/12/05 13:04:34;;;;;;;72.65;43.20;;;;;;;2.24;100.00;99842.88;10476781;28;20036;-90
2023/12/05 13:09:35;;;;;;;74.53;40.78;;;;;;;2.20;100.00;99857.28;10485985;28;20063;-89
2023/12/05 13:14:36;;;;;;;73.10;46.40;;;;;;;2.21;100.00;99858.16;10480579;28;20056;-86
2023/12/05 13:19:38;;;;;;;77.63;42.45;;;;;;;2.28;100.00;99869.81;10508499;28;20044;-86
2023/12/05 13:24:38;;;;;;;85.57;43.22;;;;;;;2.17;100.00;99875.16;10486926;28;20044;-93
2023/12/05 13:29:38;;;;;;;70.90;39.58;;;;;;;2.10;100.00;99872.97;10480939;28;20124;-86
2023/12/05 13:34:39;;;;;;;64.43;35.13;;;;;;;2.02;100.00;99881.91;10439452;28;20132;-83
2023/12/05 13:39:39;;;;;;;52.78;31.98;;;;;;;1.99;100.00;99887.75;10464803;28;20486;-88
2023/12/05 13:44:42;;;;;;;43.13;26.10;;;;;;;2.02;100.00;99892.22;10479955;28;20139;-82
2023/12/05 13:49:43;;;;;;;42.13;24.52;;;;;;;2.07;100.00;99896.00;10475354;28;20040;-88
2023/12/05 13:54:44;;;;;;;34.22;21.33;;;;;;;2.25;100.00;99908.34;10484078;28;20047;-93
2023/12/05 13:59:44;;;;;;;33.53;20.00;;;;;;;2.22;100.00;99908.13;10485074;28;20047;-89
2023/12/05 14:04:47;;;;;;;31.27;18.33;;;;;;;2.03;100.00;99915.53;10484644;28;20365;-88
2023/12/05 14:09:47;;;;;;;32.35;19.10;;;;;;;1.89;100.00;99924.97;10467380;28;20135;-88
2023/12/05 14:14:48;;;;;;;29.35;17.65;;;;;;;1.79;100.00;99926.81;10485013;28;20400;-86
2023/12/05 14:19:48;;;;;;;23.92;18.08;;;;;;;1.74;100.00;99937.69;10482643;28;20036;-83
2023/12/05 14:24:49;;;;;;;26.63;17.00;;;;;;;1.73;100.00;99953.97;10475224;28;20123;-87
2023/12/05 14:29:49;;;;;;;31.48;18.05;;;;;;;1.71;100.00;99947.81;10481971;28;20040;-83
2023/12/05 14:34:50;;;;;;;27.30;18.02;;;;;;;1.68;100.00;99962.22;10446277;28;20040;-84
2023/12/05 14:39:50;;;;;;;55.63;34.95;;;;;;;1.63;100.00;99979.06;10463532;28;20071;-85
2023/12/05 14:44:52;;;;;;;49.20;28.55;;;;;;;1.54;100.00;99984.44;10478661;28;20060;-88
2023/12/05 14:49:52;;;;;;;53.28;30.58;;;;;;;1.51;100.00;99997.13;10447659;28;20052;-85
2023/12/05 14:54:53;;;;;;;70.95;35.47;;;;;;;1.49;100.00;100007.34;10423853;28;20037;-84
2023/12/05 14:59:55;;;;;;;71.95;34.45;;;;;;;1.38;100.00;100014.31;10445673;28;20116;-85
2023/12/05 15:04:55;;;;;;;75.97;39.28;;;;;;;1.35;100.00;100021.84;10489015;28;20051;-83
2023/12/05 15:09:59;;;;;;;71.07;39.67;;;;;;;1.30;100.00;100037.00;10505051;28;20123;-87
2023/12/05 15:14:59;;;;;;;64.75;34.10;;;;;;;1.32;100.00;100044.84;10504706;28;20052;-83
2023/12/05 15:20:00;;;;;;;64.93;35.65;;;;;;;1.27;100.00;100057.41;10490806;28;20576;-89
2023/12/05 15:25:00;;;;;;;72.78;38.92;;;;;;;1.26;100.00;100060.78;10501347;28;20119;-84
2023/12/05 15:30:02;;;;;;;73.38;35.90;;;;;;;1.26;100.00;100070.16;10480108;28;20119;-83
2023/12/05 15:35:03;;;;;;;78.57;39.08;;;;;;;1.22;100.00;100073.31;10491305;28;20044;-84
2023/12/05 15:40:06;;;;;;;62.47;34.50;;;;;;;1.18;100.00;100090.25;10521749;28;20036;-88
2023/12/05 15:45:07;;;;;;;84.85;42.80;;;;;;;1.17;100.00;100098.78;10450132;28;20396;-87
2023/12/05 15:50:08;;;;;;;84.07;44.93;;;;;;;1.20;100.00;100105.81;10445693;28;20395;-87
2023/12/05 15:55:09;;;;;;;82.93;46.47;;;;;;;1.18;100.00;100116.03;10446323;28;20033;-88
2023/12/05 16:00:10;;;;;;;117.30;51.53;;;;;;;1.14;100.00;100119.16;10392025;28;20041;-86
2023/12/05 16:05:11;;;;;;;102.93;54.23;;;;;;;1.15;100.00;100121.84;10426268;28;20534;-86
2023/12/05 16:10:11;;;;;;;125.30;56.47;;;;;;;1.11;100.00;100142.16;10426128;28;20082;-86
2023/12/05 16:15:12;;;;;;;130.95;62.10;;;;;;;1.06;100.00;100136.63;10417235;28;20049;-83
2023/12/05 16:20:12;;;;;;;138.00;61.95;;;;;;;1.08;100.00;100153.09;10422251;28;20473;-81
2023/12/05 16:25:13;;;;;;;144.25;66.78;;;;;;;1.11;100.00;100161.06;10481881;28;20036;-81
2023/12/05 16:30:13;;;;;;;164.43;76.43;;;;;;;1.08;100.00;100155.69;10462513;28;20582;-83
2023/12/05 16:35:14;;;;;;;137.00;68.72;;;;;;;1.05;100.00;100170.03;10460702;28;20106;-83
2023/12/05 16:40:15;;;;;;;141.65;68.10;;;;;;;1.04;100.00;100183.72;10489945;28;20043;-85
2023/12/05 16:45:17;;;;;;;125.90;62.97;;;;;;;1.01;100.00;100179.22;10443685;28;20404;-85
2023/12/05 16:50:18;;;;;;;136.20;68.50;;;;;;;1.08;100.00;100193.47;10476661;28;20476;-84
2023/12/05 16:55:18;;;;;;;274.20;180.85;;;;;;;1.00;100.00;100192.88;10477716;28;20044;-85
2023/12/05 17:00:19;;;;;;;136.23;73.05;;;;;;;0.99;100.00;100191.09;10473065;28;20127;-85
2023/12/05 17:05:20;;;;;;;126.47;64.78;;;;;;;0.95;100.00;100191.63;10445231;28;20090;-85
2023/12/05 17:10:20;;;;;;;117.75;62.88;;;;;;;0.91;100.00;100202.50;10473948;28;20127;-85
2023/12/05 17:15:21;;;;;;;123.85;60.10;;;;;;;0.96;100.00;100207.22;10455643;28;20049;-85
2023/12/05 17:20:21;;;;;;;118.07;61.05;;;;;;;0.92;100.00;100212.00;10480643;28;20120;-85
2023/12/05 17:25:23;;;;;;;130.82;69.65;;;;;;;0.92;100.00;100219.75;10472972;28;20044;-85
2023/12/05 17:30:23;;;;;;;128.77;57.92;;;;;;;0.90;100.00;100223.88;10464125;28;20568;-85
2023/12/05 17:35:24;;;;;;;112.15;57.22;;;;;;;0.94;100.00;100224.25;10462236;28;20041;-84
2023/12/05 17:40:24;;;;;;;107.25;53.95;;;;;;;0.87;100.00;100227.16;10467530;28;20041;-84
2023/12/05 17:45:25;;;;;;;111.55;57.67;;;;;;;0.83;100.00;100241.47;10460804;28;20123;-84
2023/12/05 17:50:26;;;;;;;106.93;59.63;;;;;;;0.80;100.00;100246.38;10469633;28;20477;-85
2023/12/05 17:55:26;;;;;;;93.20;49.53;;;;;;;0.80;100.00;100253.22;10461670;28;20490;-84
2023/12/05 18:00:27;;;;;;;113.25;60.05;;;;;;;0.80;100.00;100269.56;10451141;28;20048;-85
2023/12/05 18:05:27;;;;;;;120.10;61.22;;;;;;;0.77;100.00;100277.06;10464103;28;21842;-85
2023/12/05 18:10:28;;;;;;;96.22;53.95;;;;;;;0.76;100.00;100288.13;10426911;28;20043;-83
2023/12/05 18:15:29;;;;;;;98.22;52.53;;;;;;;0.78;100.00;100288.28;10413720;28;20047;-85
2023/12/05 18:20:35;;;;;;;102.63;61.93;;;;;;;0.75;100.00;100295.75;10429711;28;20158;-86
2023/12/05 18:25:36;;;;;;;105.30;51.92;;;;;;;0.78;100.00;100307.19;10457040;28;20406;-84
2023/12/05 18:30:38;;;;;;;111.78;50.83;;;;;;;0.81;100.00;100296.25;10467180;28;20051;-85
2023/12/05 18:35:38;;;;;;;;;;;;;;;0.81;100.00;100309.13;10454937;28;20178;-84
2023/12/05 18:40:39;;;;;;;83.68;45.72;;;;;;;0.80;100.00;100305.63;10472754;28;19987;-85
2023/12/05 18:45:39;;;;;;;93.30;45.60;;;;;;;0.77;100.00;100315.69;10460420;28;20040;-86
2023/12/05 18:50:40;;;;;;;83.57;41.90;;;;;;;0.78;100.00;100316.59;10460246;28;20060;-88
2023/12/05 18:55:40;;;;;;;83.70;47.38;;;;;;;0.75;100.00;100317.25;10450165;28;20124;-88
2023/12/05 19:00:41;;;;;;;88.40;47.85;;;;;;;0.76;100.00;100328.47;10482128;28;20551;-86
2023/12/05 19:05:41;;;;;;;97.72;46.55;;;;;;;0.73;100.00;100337.75;10503165;28;20037;-86
2023/12/05 19:10:43;;;;;;;111.47;62.08;;;;;;;0.69;100.00;100340.88;10471748;28;20041;-89
2023/12/05 19:15:44;;;;;;;84.88;44.28;;;;;;;0.73;100.00;100349.72;10510748;28;20045;-88
2023/12/05 19:20:44;;;;;;;108.28;51.25;;;;;;;0.71;100.00;100349.63;10484713;28;20470;-85
2023/12/05 19:25:45;;;;;;;91.18;49.42;;;;;;;0.67;100.00;100354.41;10505103;28;20092;-85
2023/12/05 19:30:46;;;;;;;97.88;47.65;;;;;;;0.61;100.00;100354.81;10491607;28;20068;-87
2023/12/05 19:35:48;;;;;;;77.80;38.70;;;;;;;0.56;100.00;100362.16;10471661;28;20040;-86
2023/12/05 19:40:48;;;;;;;116.50;57.22;;;;;;;0.56;100.00;100364.75;10467679;28;20385;-86
2023/12/05 19:45:49;;;;;;;103.22;51.25;;;;;;;0.53;100.00;100367.06;10422606;28;20132;-85
2023/12/05 19:50:49;;;;;;;107.85;53.35;;;;;;;0.52;100.00;100372.13;10417830;28;20495;-85
2023/12/05 19:55:53;;;;;;;89.07;45.63;;;;;;;0.52;100.00;100377.28;10445453;28;20135;-92
2023/12/05 20:00:54;;;;;;;98.40;46.40;;;;;;;0.47;100.00;100382.03;10469098;28;20447;-85
2023/12/05 20:05:54;;;;;;;69.25;40.05;;;;;;;0.45;100.00;100391.31;10521676;28;20040;-87
2023/12/05 20:10:55;;;;;;;73.67;42.53;;;;;;;0.42;100.00;100391.97;10439506;28;20128;-86
2023/12/05 20:15:55;;;;;;;81.20;42.40;;;;;;;0.43;100.00;100388.63;10426718;28;20496;-90
2023/12/05 20:20:56;;;;;;;85.28;46.97;;;;;;;0.46;100.00;100393.13;10442306;28;20128;-91
2023/12/05 20:25:56;;;;;;;83.25;43.67;;;;;;;0.42;100.00;100411.66;10444279;28;20142;-94
2023/12/05 20:30:57;;;;;;;102.45;54.58;;;;;;;0.40;100.00;100406.41;10481310;28;20378;-90
2023/12/05 20:35:57;;;;;;;106.93;57.65;;;;;;;0.33;100.00;100410.91;10432431;28;20432;-89
2023/12/05 20:40:58;;;;;;;107.28;57.00;;;;;;;0.31;100.00;100415.03;10426364;28;20086;-89
2023/12/05 20:45:58;;;;;;;133.13;61.47;;;;;;;0.28;100.00;100423.44;10430412;28;20045;-88
2023/12/05 20:50:59;;;;;;;111.40;58.95;;;;;;;0.24;100.00;100422.28;10424073;28;20044;-88
2023/12/05 20:56:00;;;;;;;134.80;62.78;;;;;;;0.26;100.00;100427.56;10428013;28;20048;-86
2023/12/05 21:01:01;;;;;;;125.33;59.00;;;;;;;0.24;100.00;100436.81;10443934;28;20068;-91
2023/12/05 21:06:04;;;;;;;155.30;69.93;;;;;;;0.23;100.00;100428.19;10420920;28;20363;-88
2023/12/05 21:11:04;;;;;;;136.15;68.30;;;;;;;0.24;100.00;100431.69;10434301;28;20508;-87
2023/12/05 21:16:05;;;;;;;121.45;63.45;;;;;;;0.23;100.00;100433.34;10434847;28;20033;-92
2023/12/05 21:21:06;;;;;;;133.45;71.40;;;;;;;0.22;100.00;100439.25;10431584;28;20130;-87
2023/12/05 21:26:06;;;;;;;133.30;65.72;;;;;;;0.22;100.00;100451.25;10435464;28;20071;-87
2023/12/05 21:31:07;;;;;;;118.75;61.25;;;;;;;0.16;100.00;100445.59;10422796;28;20068;-89
2023/12/05 21:36:08;;;;;;;116.97;60.72;;;;;;;0.12;100.00;100457.28;10420240;28;21655;-87
2023/12/05 21:41:08;;;;;;;105.78;54.63;;;;;;;0.09;100.00;100464.75;10421148;28;20045;-87
2023/12/05 21:46:28;;;;;;;98.30;50.45;;;;;;;0.00;100.00;100470.06;10420144;28;20049;-88
2023/12/05 21:51:31;;;;;;;90.43;50.38;;;;;;;-0.05;100.00;100471.34;10495436;28;20028;-89
2023/12/05 21:56:32;;;;;;;91.47;49.40;;;;;;;-0.12;100.00;100476.75;10460041;28;20062;-89
2023/12/05 22:01:34;;;;;;;121.13;56.43;;;;;;;-0.12;100.00;100485.34;10478780;28;20033;-90
2023/12/05 22:06:34;;;;;;;91.50;49.40;;;;;;;-0.18;100.00;100496.03;10451780;28;20041;-89
2023/12/05 22:11:35;;;;;;;114.37;58.50;;;;;;;-0.14;100.00;100497.19;10447551;28;20992;-89
2023/12/05 22:16:36;;;;;;;111.93;58.23;;;;;;;-0.13;100.00;100500.69;10436353;28;20133;-89
2023/12/05 22:21:42;;;;;;;119.53;66.37;;;;;;;-0.17;100.00;100494.34;10414686;28;20584;-89
2023/12/05 22:26:43;;;;;;;127.70;64.65;;;;;;;-0.17;100.00;100497.84;10471857;28;20120;-88
2023/12/05 22:31:43;;;;;;;132.00;66.70;;;;;;;-0.15;100.00;100513.38;10477011;28;20037;-88
2023/12/05 22:36:44;;;;;;;144.80;77.88;;;;;;;-0.16;100.00;100519.31;10459642;28;20225;-88
2023/12/05 22:41:44;;;;;;;137.55;72.78;;;;;;;-0.15;100.00;100521.09;10477181;28;20040;-87